Airfield :
LOGIN :

Register | Disclaimer

   EN    FR    IT 

 










Legend :    VFR   Marginal VFR   IFR   Intensive IFR   Very Intensive IFR
Visi :
Ceiling :
>= 8 km
>= 3000ft
5 to 8 km
1000 to 3000 ft
1500m to 5 km
500 to 1000 ft
800 to 1500m
200 to 500 ft
< 800m
< 200 ft
Symbols :   Thunderstorms  Fog  Heavy snow  Heavy precipitations  Wind > 20 kt
SIGMETs :     Misc.  Thunderstorms  Icing  Turbulence  Mountain Waves  Volcanic Ashes







- Airport Elevation : 22 ft
- IATA code : TUN


DTTA - Tunis Carthage

CURRENT METAR :
  • 200930Z 11005KT 050V160 9999 FEW030 29/12 Q1013

EXPIRED METARs :
  • 200900Z 11006KT 060V160 9999 FEW030 29/11 Q1013
  • 200800Z 16003KT 100V220 CAVOK 28/12 Q1014
  • 200730Z VRB02KT CAVOK 27/12 Q1014
  • 200700Z 11003KT 060V160 CAVOK 26/13 Q1013

TAF TAF DTTA
Valid from the 20 at 06:00 until the 21 at 06:00 UTC


200500Z 2006/2106 VRB02KT 9999 FEW033
BECMG 2011/2013 11012KT
BECMG 2021/2023 VRB03KT
No reported NOTAMs for that airfield.



MET'MAP, your aeronautical weather chart ! - Copyright ORBIFLY December 2007 - Disclaimer

ORBIFLY MET'MAP TEAM :

Programming & Development : Alexandra Zaïnal
Concept & Development : Baudouin d'Aumeries
Co-Development & Prog : Marc-Olivier Méhu
Technical & hardware support : Manuel Goepfert

Contact : metmap@orbifly.com




SOURCES & CREDITS :

   NOAA